Time;durP1;ratioP1;P1;durP2;ratioP2;P2;SDS_P1;SDS_P2;PMS_P1;PMS_P2;Temp;Humidity;BMP_temperature;BMP_pressure;BME280_temperature;BME280_humidity;BME280_pressure;Samples;Min_cycle;Max_cycle;Signal;HPM_P1;HPM_P2
2022/01/10 00:02:17;;;;;;;73.65;39.88;;;1.50;99.90;;;;;;5084605;22;20400;-77
2022/01/10 00:04:45;;;;;;;70.93;38.10;;;1.50;99.90;;;;;;5024622;28;20048;-80
2022/01/10 00:07:13;;;;;;;68.22;38.40;;;1.30;99.90;;;;;;5013168;28;20053;-77
2022/01/10 00:09:41;;;;;;;70.40;38.47;;;1.20;99.90;;;;;;5030018;28;20049;-78
2022/01/10 00:12:11;;;;;;;66.25;37.33;;;1.20;99.90;;;;;;5034134;28;20041;-78
2022/01/10 00:14:38;;;;;;;71.22;40.17;;;1.20;99.90;;;;;;5020480;28;20057;-78
2022/01/10 00:17:06;;;;;;;59.97;33.00;;;1.20;99.90;;;;;;5028735;28;20092;-79
2022/01/10 00:19:34;;;;;;;65.57;36.85;;;1.30;99.90;;;;;;5023976;28;20042;-80
2022/01/10 00:22:02;;;;;;;61.13;35.60;;;1.20;99.90;;;;;;5024121;28;20042;-80
2022/01/10 00:24:31;;;;;;;63.22;35.35;;;1.20;99.90;;;;;;5029527;28;20030;-80
2022/01/10 00:26:59;;;;;;;63.42;36.45;;;1.20;99.90;;;;;;5021438;28;20046;-79
2022/01/10 00:29:28;;;;;;;53.92;31.92;;;1.30;99.90;;;;;;5014435;28;20137;-78
2022/01/10 00:31:57;;;;;;;59.78;34.75;;;1.30;99.90;;;;;;5013477;28;20046;-79
2022/01/10 00:34:24;;;;;;;59.65;33.20;;;1.30;99.90;;;;;;5013746;28;20513;-78
2022/01/10 00:36:52;;;;;;;58.78;34.38;;;1.30;99.90;;;;;;5013014;28;20044;-78
2022/01/10 00:39:21;;;;;;;59.20;33.83;;;1.30;99.90;;;;;;5013516;28;20049;-79
2022/01/10 00:41:49;;;;;;;57.08;34.00;;;1.30;99.90;;;;;;5014256;28;20042;-79
2022/01/10 00:44:24;;;;;;;56.78;31.42;;;1.40;99.90;;;;;;5014521;28;20049;-78
2022/01/10 00:46:53;;;;;;;53.05;30.67;;;1.40;99.90;;;;;;5017441;28;20041;-79
2022/01/10 00:49:21;;;;;;;61.53;32.97;;;1.40;99.90;;;;;;5031721;28;20049;-79
2022/01/10 00:51:49;;;;;;;54.78;31.60;;;1.40;99.90;;;;;;5013537;28;20081;-81
2022/01/10 00:54:16;;;;;;;61.00;34.20;;;1.30;99.90;;;;;;5013908;28;20045;-78
2022/01/10 00:56:44;;;;;;;57.53;34.35;;;1.40;99.90;;;;;;5013679;28;20042;-78
2022/01/10 00:59:12;;;;;;;62.92;34.60;;;1.40;99.90;;;;;;5015708;28;20073;-77
2022/01/10 01:01:39;;;;;;;59.95;33.63;;;1.50;99.90;;;;;;5019678;28;20083;-78
2022/01/10 01:04:08;;;;;;;51.28;30.45;;;1.40;99.90;;;;;;5036001;28;20559;-78
2022/01/10 01:06:36;;;;;;;57.95;32.00;;;1.40;99.90;;;;;;5037309;28;20037;-78
2022/01/10 01:09:08;;;;;;;57.47;32.85;;;1.40;99.90;;;;;;5035645;28;20045;-78
2022/01/10 01:12:02;;;;;;;57.08;33.20;;;1.40;99.90;;;;;;5037026;28;20054;-77
2022/01/10 01:14:49;;;;;;;56.50;31.60;;;1.50;99.90;;;;;;5037770;28;20052;-78
2022/01/10 01:17:33;;;;;;;58.20;32.17;;;1.40;99.90;;;;;;5036910;28;20530;-78
2022/01/10 01:20:27;;;;;;;59.22;33.25;;;1.40;99.90;;;;;;5035736;28;20054;-78
2022/01/10 01:25:39;;;;;;;59.22;33.30;;;1.40;99.90;;;;;;5035399;28;20045;-77
2022/01/10 01:28:07;;;;;;;64.20;36.13;;;1.30;99.90;;;;;;5036011;28;20095;-79
2022/01/10 01:30:34;;;;;;;62.63;35.08;;;1.30;99.90;;;;;;5036320;28;20104;-77
2022/01/10 01:33:02;;;;;;;66.07;34.35;;;1.30;99.90;;;;;;5036623;28;20125;-79
2022/01/10 01:35:34;;;;;;;63.13;34.83;;;1.30;99.90;;;;;;5035052;28;20099;-79
2022/01/10 01:38:02;;;;;;;57.00;32.05;;;1.30;99.90;;;;;;5034927;28;20124;-79
2022/01/10 01:40:32;;;;;;;63.80;34.05;;;1.40;99.90;;;;;;5035036;28;20049;-79
2022/01/10 01:43:00;;;;;;;61.65;33.65;;;1.30;99.90;;;;;;5034808;28;20050;-78
2022/01/10 01:45:39;;;;;;;67.07;34.60;;;1.40;99.90;;;;;;5034474;28;20060;-78
2022/01/10 01:48:08;;;;;;;64.57;33.88;;;1.30;99.90;;;;;;5035078;28;20060;-78
2022/01/10 01:50:38;;;;;;;60.45;34.20;;;1.40;99.90;;;;;;5035469;28;20045;-77
2022/01/10 01:53:07;;;;;;;63.92;34.20;;;1.40;99.90;;;;;;5034572;28;20069;-79
2022/01/10 01:55:35;;;;;;;64.43;34.58;;;1.40;99.90;;;;;;5034804;28;20136;-77
2022/01/10 01:58:04;;;;;;;65.10;34.70;;;1.30;99.90;;;;;;5037696;28;20048;-78
2022/01/10 02:00:32;;;;;;;63.13;33.10;;;1.30;99.90;;;;;;5036333;28;20393;-78
2022/01/10 02:03:00;;;;;;;58.17;31.25;;;1.30;99.90;;;;;;5036202;28;20060;-77
2022/01/10 02:05:30;;;;;;;62.38;32.58;;;1.40;99.90;;;;;;5036831;28;20045;-78
2022/01/10 02:07:59;;;;;;;61.25;33.50;;;1.30;99.90;;;;;;5036267;28;20049;-79
2022/01/10 02:10:27;;;;;;;58.85;31.83;;;1.40;99.90;;;;;;5035342;28;20060;-78
2022/01/10 02:12:56;;;;;;;57.80;31.55;;;1.50;99.90;;;;;;5035025;28;20139;-78
2022/01/10 02:15:33;;;;;;;57.85;31.17;;;1.50;99.90;;;;;;5035455;28;20052;-77
2022/01/10 02:18:04;;;;;;;55.13;29.63;;;1.50;99.90;;;;;;5034628;28;20057;-79
2022/01/10 02:20:35;;;;;;;53.45;28.95;;;1.50;99.90;;;;;;5034116;28;20462;-78
2022/01/10 02:23:04;;;;;;;56.55;30.02;;;1.50;99.90;;;;;;5033747;28;20109;-79
2022/01/10 02:25:50;;;;;;;57.28;31.73;;;1.50;99.90;;;;;;5033474;28;20511;-79
2022/01/10 02:28:27;;;;;;;61.30;32.83;;;1.40;99.90;;;;;;5035867;28;20042;-79
2022/01/10 02:30:57;;;;;;;57.55;32.00;;;1.50;99.90;;;;;;5044663;28;20099;-79
2022/01/10 02:33:26;;;;;;;50.92;28.05;;;1.50;99.90;;;;;;5043598;28;20045;-79
2022/01/10 02:36:03;;;;;;;59.65;31.38;;;1.50;99.90;;;;;;5037545;28;20038;-79
2022/01/10 02:38:31;;;;;;;60.35;32.97;;;1.50;99.90;;;;;;5034045;28;20366;-79
2022/01/10 02:40:59;;;;;;;57.03;31.73;;;1.50;99.90;;;;;;5034124;28;20095;-79
2022/01/10 02:43:28;;;;;;;54.25;29.15;;;1.50;99.90;;;;;;5035037;28;20459;-79
2022/01/10 02:45:56;;;;;;;55.97;29.75;;;1.50;99.90;;;;;;5034057;28;20398;-79
2022/01/10 02:48:24;;;;;;;47.15;26.17;;;1.50;99.90;;;;;;5034103;28;20136;-79
2022/01/10 02:50:54;;;;;;;49.55;28.60;;;1.50;99.90;;;;;;5028396;28;20128;-79
2022/01/10 02:53:21;;;;;;;53.47;28.10;;;1.40;99.90;;;;;;5023100;28;20053;-79
2022/01/10 02:55:49;;;;;;;52.15;27.65;;;1.40;99.90;;;;;;5026149;28;20050;-78
2022/01/10 02:58:16;;;;;;;48.55;26.27;;;1.30;99.90;;;;;;5028414;28;20048;-81
2022/01/10 03:00:44;;;;;;;48.80;25.98;;;1.20;99.90;;;;;;5054437;28;20073;-80
2022/01/10 03:03:11;;;;;;;38.20;21.98;;;1.20;99.90;;;;;;5035485;28;20061;-78
2022/01/10 03:05:40;;;;;;;40.33;21.90;;;1.10;99.90;;;;;;5032698;28;20048;-78
2022/01/10 03:08:08;;;;;;;42.85;23.80;;;1.10;99.90;;;;;;5033095;28;20048;-78
2022/01/10 03:10:36;;;;;;;41.92;23.02;;;1.00;99.90;;;;;;5032913;28;20399;-78
2022/01/10 03:13:04;;;;;;;37.15;20.42;;;1.00;99.90;;;;;;5034317;28;20049;-78
2022/01/10 03:15:32;;;;;;;39.58;21.75;;;1.00;99.90;;;;;;5033445;28;20045;-78
2022/01/10 03:18:00;;;;;;;40.40;21.95;;;1.00;99.90;;;;;;5033078;28;20560;-78
2022/01/10 03:20:28;;;;;;;39.22;22.73;;;1.20;99.90;;;;;;5032796;28;20055;-78
2022/01/10 03:22:55;;;;;;;36.72;20.02;;;1.30;99.90;;;;;;5032942;28;20041;-78
2022/01/10 03:25:25;;;;;;;32.63;20.25;;;1.40;99.90;;;;;;5033442;28;20073;-78
2022/01/10 03:27:57;;;;;;;39.08;20.50;;;1.30;99.90;;;;;;5032874;28;20049;-77
2022/01/10 03:30:26;;;;;;;35.97;20.67;;;1.20;99.90;;;;;;5035619;28;20452;-80
2022/01/10 03:32:54;;;;;;;34.60;20.70;;;1.20;99.90;;;;;;5032159;28;20041;-79
2022/01/10 03:35:35;;;;;;;33.72;19.83;;;1.10;99.90;;;;;;5035911;28;20056;-79
2022/01/10 03:38:05;;;;;;;46.55;23.05;;;1.20;99.90;;;;;;5039808;28;20497;-78
2022/01/10 03:40:36;;;;;;;39.53;19.85;;;1.20;99.90;;;;;;5045166;28;20140;-78
2022/01/10 03:43:09;;;;;;;41.08;21.75;;;1.20;99.90;;;;;;5046816;28;20045;-78
2022/01/10 03:45:36;;;;;;;39.92;22.27;;;1.20;99.90;;;;;;5046889;28;20056;-78
2022/01/10 03:48:05;;;;;;;41.13;20.77;;;1.10;99.90;;;;;;5047008;28;20046;-78
2022/01/10 03:50:32;;;;;;;31.88;18.58;;;1.10;99.90;;;;;;5036202;28;20464;-77
2022/01/10 03:53:00;;;;;;;29.58;18.10;;;1.10;99.90;;;;;;5032474;28;20496;-77
2022/01/10 03:55:28;;;;;;;30.45;17.75;;;1.10;99.90;;;;;;5031969;28;20034;-77
2022/01/10 03:57:59;;;;;;;29.05;17.10;;;1.20;99.90;;;;;;5032530;28;20477;-77
2022/01/10 04:00:27;;;;;;;31.20;19.20;;;1.20;99.90;;;;;;5036412;28;20072;-77
2022/01/10 04:02:59;;;;;;;29.80;17.50;;;1.10;99.90;;;;;;5035527;28;20058;-79
2022/01/10 04:05:31;;;;;;;30.45;17.35;;;1.10;99.90;;;;;;5040769;28;20118;-78
2022/01/10 04:07:59;;;;;;;26.27;15.98;;;1.20;99.90;;;;;;5044925;28;20049;-78
2022/01/10 04:10:26;;;;;;;28.00;16.60;;;1.20;99.90;;;;;;5044610;28;20056;-78
2022/01/10 04:12:54;;;;;;;31.30;17.92;;;1.10;99.90;;;;;;5052025;28;20068;-79
2022/01/10 04:15:23;;;;;;;31.02;17.52;;;1.10;99.90;;;;;;5054609;28;20053;-78
2022/01/10 04:17:55;;;;;;;35.88;19.23;;;1.10;99.90;;;;;;5050647;28;20050;-78
2022/01/10 04:20:24;;;;;;;32.63;18.02;;;1.20;99.90;;;;;;5044783;28;20049;-79
2022/01/10 04:22:53;;;;;;;33.08;18.88;;;1.20;99.90;;;;;;5033923;28;20555;-79
2022/01/10 04:25:21;;;;;;;32.90;16.83;;;1.20;99.90;;;;;;5033155;28;20484;-78
2022/01/10 04:27:49;;;;;;;29.35;17.88;;;1.20;99.90;;;;;;5021191;28;20481;-78
2022/01/10 04:30:27;;;;;;;32.13;17.85;;;1.20;99.90;;;;;;5031000;28;20049;-78
2022/01/10 04:32:57;;;;;;;34.58;19.48;;;1.20;99.90;;;;;;5035249;28;20044;-78
2022/01/10 04:35:25;;;;;;;35.97;20.55;;;1.30;99.90;;;;;;5037801;28;20111;-78
2022/01/10 04:37:53;;;;;;;35.67;19.63;;;1.30;99.90;;;;;;5036515;28;20049;-79
2022/01/10 04:40:21;;;;;;;40.83;22.08;;;1.30;99.90;;;;;;5037738;28;20049;-79
2022/01/10 04:42:49;;;;;;;39.55;20.90;;;1.20;99.90;;;;;;5043825;28;20449;-78
2022/01/10 04:45:16;;;;;;;40.42;21.45;;;1.30;99.90;;;;;;5038752;28;20045;-79
2022/01/10 04:47:46;;;;;;;38.80;20.85;;;1.40;99.90;;;;;;5039130;28;20046;-80
2022/01/10 04:53:06;;;;;;;43.25;22.58;;;1.30;99.90;;;;;;5035348;28;20056;-81
2022/01/10 04:55:33;;;;;;;43.60;22.25;;;0.90;99.90;;;;;;5045965;28;20073;-79
2022/01/10 04:58:01;;;;;;;44.50;21.95;;;1.00;99.90;;;;;;5037031;28;20080;-78
2022/01/10 05:00:29;;;;;;;42.90;22.48;;;1.10;99.90;;;;;;5042225;28;20121;-79
2022/01/10 05:02:58;;;;;;;40.33;21.70;;;1.20;99.90;;;;;;5044105;28;20049;-79
2022/01/10 05:05:26;;;;;;;49.88;22.73;;;1.30;99.90;;;;;;5039753;28;20073;-78
2022/01/10 05:07:54;;;;;;;46.40;23.20;;;1.30;99.90;;;;;;5036504;28;20087;-79
2022/01/10 05:10:23;;;;;;;45.45;23.27;;;1.00;99.90;;;;;;5036547;28;20076;-77
2022/01/10 05:12:51;;;;;;;52.13;24.77;;;0.90;99.90;;;;;;5041422;28;20061;-79
2022/01/10 05:15:19;;;;;;;49.85;26.23;;;0.80;99.90;;;;;;5036742;28;20045;-79
2022/01/10 05:17:47;;;;;;;56.67;26.10;;;0.90;99.90;;;;;;5034934;28;20045;-77
2022/01/10 05:20:16;;;;;;;46.42;23.77;;;0.90;99.90;;;;;;5036013;28;20488;-79
2022/01/10 05:22:44;;;;;;;51.47;24.45;;;0.90;99.90;;;;;;5035808;28;20115;-79
2022/01/10 05:25:11;;;;;;;45.72;23.08;;;1.00;99.90;;;;;;5032382;28;20038;-79
2022/01/10 05:27:39;;;;;;;45.75;22.40;;;1.00;99.90;;;;;;5019856;28;20042;-79
2022/01/10 05:30:11;;;;;;;46.15;23.05;;;1.00;99.90;;;;;;5015976;28;20058;-79
2022/01/10 05:32:39;;;;;;;44.47;22.55;;;1.00;99.90;;;;;;5015523;28;20100;-78
2022/01/10 05:35:24;;;;;;;48.47;22.02;;;0.90;99.90;;;;;;5017825;28;20042;-79
2022/01/10 05:37:51;;;;;;;43.55;22.30;;;1.00;99.90;;;;;;5017970;28;20060;-77
2022/01/10 05:40:20;;;;;;;39.25;20.35;;;0.90;99.90;;;;;;5037086;28;20068;-79
2022/01/10 05:42:48;;;;;;;52.83;24.73;;;0.90;99.90;;;;;;5035563;28;20045;-77
2022/01/10 05:45:15;;;;;;;41.22;19.83;;;0.80;99.90;;;;;;5048923;28;20052;-78
2022/01/10 05:47:45;;;;;;;43.88;20.70;;;0.70;99.90;;;;;;5061246;28;20049;-79
2022/01/10 05:50:19;;;;;;;38.33;20.17;;;0.70;99.90;;;;;;5077190;28;20033;-77
2022/01/10 05:52:50;;;;;;;39.00;20.13;;;0.70;99.90;;;;;;5079999;28;20021;-79
2022/01/10 05:55:19;;;;;;;50.50;21.67;;;0.70;99.90;;;;;;5079392;28;20298;-79
2022/01/10 05:57:50;;;;;;;46.90;22.67;;;0.70;99.90;;;;;;5079469;28;20017;-78
2022/01/10 06:00:21;;;;;;;43.90;21.15;;;0.80;99.90;;;;;;5067339;28;20053;-79
2022/01/10 06:02:49;;;;;;;48.05;22.77;;;0.80;99.90;;;;;;5056254;28;20488;-78
2022/01/10 06:05:30;;;;;;;39.08;19.52;;;0.70;99.90;;;;;;5055239;28;20041;-78
2022/01/10 06:08:03;;;;;;;41.50;22.13;;;0.80;99.90;;;;;;5056079;28;20048;-78
2022/01/10 06:10:32;;;;;;;37.45;20.63;;;0.70;99.90;;;;;;5049820;28;20128;-79
2022/01/10 06:13:10;;;;;;;49.75;25.13;;;0.70;99.90;;;;;;5035236;28;20079;-78
2022/01/10 06:15:41;;;;;;;33.95;20.02;;;0.60;99.90;;;;;;5035367;28;20053;-79
2022/01/10 06:18:08;;;;;;;44.50;22.85;;;0.60;99.90;;;;;;5035679;28;20428;-80
2022/01/10 06:20:36;;;;;;;45.28;24.40;;;0.60;99.90;;;;;;5033294;28;20053;-80
2022/01/10 06:23:05;;;;;;;61.90;28.15;;;0.70;99.90;;;;;;5032389;28;20400;-81
2022/01/10 06:25:34;;;;;;;43.10;22.48;;;0.80;99.90;;;;;;5036580;28;20046;-81
2022/01/10 06:28:01;;;;;;;50.20;24.42;;;0.90;99.90;;;;;;5033246;28;20373;-78
2022/01/10 06:30:29;;;;;;;44.58;22.70;;;1.00;99.90;;;;;;5032712;28;20049;-78
2022/01/10 06:32:57;;;;;;;45.63;24.90;;;1.10;99.90;;;;;;5035911;28;20055;-78
2022/01/10 06:35:25;;;;;;;56.53;27.60;;;1.10;99.90;;;;;;5035268;28;20042;-78
2022/01/10 06:37:54;;;;;;;71.60;32.33;;;1.00;99.90;;;;;;5036613;28;20084;-77
2022/01/10 06:40:24;;;;;;;65.18;30.70;;;1.00;99.90;;;;;;5044031;28;20064;-79
2022/01/10 06:42:52;;;;;;;63.78;30.15;;;1.00;99.90;;;;;;5054095;28;20045;-79
2022/01/10 06:45:22;;;;;;;45.90;22.50;;;1.00;99.90;;;;;;5052537;28;20037;-78
2022/01/10 06:47:50;;;;;;;42.33;23.50;;;1.00;99.90;;;;;;5038832;28;20042;-77
2022/01/10 06:50:18;;;;;;;59.53;28.95;;;0.90;99.90;;;;;;5038435;28;20152;-78
2022/01/10 06:52:46;;;;;;;45.67;22.75;;;0.80;99.90;;;;;;5036863;28;20136;-78
2022/01/10 06:55:14;;;;;;;68.75;33.30;;;0.70;99.90;;;;;;5034110;28;20455;-77
2022/01/10 06:57:46;;;;;;;54.92;28.90;;;0.60;99.90;;;;;;5019434;28;20053;-78
2022/01/10 07:00:18;;;;;;;44.80;23.23;;;0.60;99.90;;;;;;5037144;28;20136;-77
2022/01/10 07:02:50;;;;;;;47.95;25.50;;;0.60;99.90;;;;;;5034349;28;20066;-77
2022/01/10 07:05:18;;;;;;;44.20;24.33;;;0.50;99.90;;;;;;5035242;28;20099;-79
2022/01/10 07:07:49;;;;;;;50.75;25.90;;;0.60;99.90;;;;;;5036315;28;20166;-79
2022/01/10 07:10:26;;;;;;;60.50;31.95;;;0.60;99.90;;;;;;5035621;28;20143;-78
2022/01/10 07:12:55;;;;;;;62.25;31.80;;;0.50;99.90;;;;;;5035738;28;20500;-79
2022/01/10 07:15:25;;;;;;;40.00;22.42;;;0.60;99.90;;;;;;5032887;28;20049;-79
2022/01/10 07:17:56;;;;;;;51.13;28.02;;;0.70;99.90;;;;;;5027796;28;20501;-78
2022/01/10 07:20:27;;;;;;;50.03;27.00;;;0.50;99.90;;;;;;5023241;28;20048;-76
2022/01/10 07:22:55;;;;;;;47.03;24.92;;;0.40;99.90;;;;;;5039878;28;20033;-79
2022/01/10 07:25:23;;;;;;;41.63;21.95;;;0.40;99.90;;;;;;5039890;28;20042;-76
2022/01/10 07:27:51;;;;;;;44.58;24.88;;;0.30;99.90;;;;;;5033866;28;20046;-78
2022/01/10 07:30:20;;;;;;;54.45;28.85;;;0.30;99.90;;;;;;5032309;28;20045;-79
2022/01/10 07:32:47;;;;;;;51.40;27.95;;;0.40;99.90;;;;;;5033112;28;20091;-78
2022/01/10 07:35:15;;;;;;;45.47;23.00;;;0.50;99.90;;;;;;5033225;28;20053;-78
2022/01/10 07:37:42;;;;;;;48.83;27.05;;;0.50;99.90;;;;;;5033208;28;20103;-78
2022/01/10 07:40:11;;;;;;;42.17;22.83;;;0.50;99.90;;;;;;5034186;28;20416;-79
2022/01/10 07:42:39;;;;;;;43.70;23.48;;;0.50;99.90;;;;;;5033240;28;20041;-78
2022/01/10 07:45:14;;;;;;;40.85;22.33;;;0.50;99.90;;;;;;5013315;28;20137;-76
2022/01/10 07:47:43;;;;;;;35.42;19.95;;;0.50;99.90;;;;;;5015067;28;20042;-78
2022/01/10 07:50:11;;;;;;;37.25;20.60;;;0.60;99.90;;;;;;5015817;28;20137;-77
2022/01/10 07:52:39;;;;;;;32.13;19.17;;;0.60;99.90;;;;;;5034124;28;20064;-77
2022/01/10 07:55:07;;;;;;;31.08;17.55;;;0.60;99.90;;;;;;5034840;28;20569;-78
2022/01/10 07:57:35;;;;;;;27.55;15.52;;;0.60;99.90;;;;;;5035087;28;20491;-79
2022/01/10 08:00:04;;;;;;;28.05;16.80;;;0.50;99.90;;;;;;5035505;28;20121;-78
2022/01/10 08:02:40;;;;;;;30.60;17.88;;;0.30;99.90;;;;;;5026381;28;20053;-77
2022/01/10 08:05:10;;;;;;;29.98;18.15;;;0.30;99.90;;;;;;5033517;28;20049;-76
2022/01/10 08:07:38;;;;;;;29.83;18.02;;;0.40;99.90;;;;;;5037190;28;20235;-77
2022/01/10 08:10:07;;;;;;;31.17;18.73;;;0.50;99.90;;;;;;5037611;28;20041;-78
2022/01/10 08:12:35;;;;;;;32.88;19.17;;;0.60;99.90;;;;;;5038797;28;20041;-77
2022/01/10 08:15:02;;;;;;;29.33;17.70;;;0.60;99.90;;;;;;5039422;28;20424;-76
2022/01/10 08:17:30;;;;;;;29.45;18.10;;;0.40;99.90;;;;;;5038651;28;20112;-77
2022/01/10 08:19:58;;;;;;;36.17;18.70;;;0.40;99.90;;;;;;5037936;28;20060;-77
2022/01/10 08:22:27;;;;;;;32.58;18.17;;;0.40;99.90;;;;;;5037174;28;20037;-75
2022/01/10 08:24:54;;;;;;;30.50;17.58;;;0.40;99.90;;;;;;5036547;28;20381;-78
2022/01/10 08:27:22;;;;;;;32.25;18.90;;;0.50;99.90;;;;;;5037043;28;20152;-76
2022/01/10 08:29:51;;;;;;;32.40;20.52;;;0.60;99.90;;;;;;5037178;28;20521;-79
2022/01/10 08:32:19;;;;;;;31.75;19.13;;;0.70;99.90;;;;;;5036815;28;20531;-76
2022/01/10 08:34:49;;;;;;;35.72;19.60;;;0.80;99.90;;;;;;5038317;28;20088;-77
2022/01/10 08:37:17;;;;;;;32.03;19.95;;;0.90;99.90;;;;;;5037181;28;20496;-77
2022/01/10 08:39:49;;;;;;;36.05;20.20;;;0.90;99.90;;;;;;5037709;28;20041;-77
2022/01/10 08:42:17;;;;;;;35.45;19.40;;;1.00;99.90;;;;;;5038870;28;20064;-76
2022/01/10 08:44:45;;;;;;;32.92;19.45;;;0.90;99.90;;;;;;5036862;28;20046;-79
2022/01/10 08:47:13;;;;;;;34.67;19.92;;;1.00;99.90;;;;;;5039565;28;20049;-78
2022/01/10 08:49:41;;;;;;;39.80;22.35;;;1.10;99.90;;;;;;5039943;28;20056;-78
2022/01/10 08:52:09;;;;;;;34.35;21.00;;;1.10;99.90;;;;;;5039974;28;20107;-78
2022/01/10 08:54:37;;;;;;;38.85;22.77;;;1.20;99.90;;;;;;5039499;28;20106;-79
2022/01/10 08:57:10;;;;;;;47.65;25.48;;;1.10;99.90;;;;;;5039253;28;20096;-79
2022/01/10 08:59:38;;;;;;;42.40;24.95;;;1.10;99.90;;;;;;5038595;28;20045;-78
2022/01/10 09:02:06;;;;;;;44.42;25.92;;;1.20;99.90;;;;;;5037902;28;20416;-77
2022/01/10 09:04:37;;;;;;;37.13;22.88;;;1.40;99.90;;;;;;5038554;28;20041;-77
2022/01/10 09:07:08;;;;;;;49.55;26.75;;;1.50;99.90;;;;;;5032724;28;20107;-77
2022/01/10 09:09:37;;;;;;;49.47;26.75;;;1.50;99.90;;;;;;5035918;28;20052;-77
2022/01/10 09:12:05;;;;;;;45.78;26.60;;;1.60;99.90;;;;;;5037943;28;20057;-78
2022/01/10 09:14:34;;;;;;;43.30;23.38;;;1.70;99.90;;;;;;5039474;28;20052;-77
2022/01/10 09:17:03;;;;;;;34.92;21.77;;;1.80;99.90;;;;;;5040753;28;20076;-77
2022/01/10 09:19:31;;;;;;;30.55;19.20;;;2.00;99.90;;;;;;5045376;28;20116;-79
2022/01/10 09:21:59;;;;;;;38.03;21.08;;;1.90;99.90;;;;;;5043464;28;20053;-77
2022/01/10 09:24:28;;;;;;;35.05;21.10;;;1.80;99.90;;;;;;5043866;28;20053;-77
2022/01/10 09:26:56;;;;;;;37.95;21.63;;;1.90;99.90;;;;;;5039371;28;20074;-78
2022/01/10 09:29:28;;;;;;;36.65;24.05;;;2.00;99.90;;;;;;5036085;28;20053;-76
2022/01/10 09:31:57;;;;;;;36.72;23.02;;;2.10;99.90;;;;;;5037416;28;20041;-77
2022/01/10 09:34:24;;;;;;;39.80;23.50;;;2.20;99.90;;;;;;5051693;28;20076;-78
2022/01/10 09:36:52;;;;;;;40.17;24.25;;;2.30;99.90;;;;;;5054358;28;20076;-78
2022/01/10 09:39:21;;;;;;;39.88;25.13;;;2.30;99.90;;;;;;5048983;28;20171;-78
2022/01/10 09:41:53;;;;;;;40.92;23.30;;;2.40;99.90;;;;;;5045785;28;20077;-77
2022/01/10 09:44:20;;;;;;;41.75;24.42;;;2.40;99.90;;;;;;5039125;28;20053;-77
2022/01/10 09:46:48;;;;;;;38.83;24.58;;;2.30;99.90;;;;;;5036926;28;20401;-77
2022/01/10 09:49:18;;;;;;;44.63;26.40;;;2.30;99.90;;;;;;5036721;28;20468;-78
2022/01/10 09:51:46;;;;;;;50.38;26.63;;;2.30;99.90;;;;;;5055082;28;20111;-79
2022/01/10 09:54:14;;;;;;;41.25;23.02;;;2.30;99.90;;;;;;5049946;28;20504;-77
2022/01/10 09:56:43;;;;;;;37.10;22.65;;;2.30;99.90;;;;;;5038702;28;20061;-78
2022/01/10 09:59:11;;;;;;;34.08;20.67;;;2.30;99.90;;;;;;5034941;28;20064;-76
2022/01/10 10:01:38;;;;;;;32.10;19.98;;;2.40;99.90;;;;;;5044853;28;20049;-77
2022/01/10 10:04:08;;;;;;;35.83;21.65;;;2.40;99.90;;;;;;5045770;28;20049;-77
2022/01/10 10:06:37;;;;;;;33.75;22.27;;;2.30;99.90;;;;;;5038283;28;20133;-78
2022/01/10 10:09:09;;;;;;;37.92;22.75;;;2.30;99.90;;;;;;5037552;28;20091;-76
2022/01/10 10:11:41;;;;;;;33.22;21.40;;;2.30;99.90;;;;;;5048398;28;20053;-76
2022/01/10 10:14:12;;;;;;;35.20;21.80;;;2.40;99.90;;;;;;5023177;28;20420;-77
2022/01/10 10:16:49;;;;;;;40.10;21.95;;;2.50;99.90;;;;;;5038009;28;20041;-76
2022/01/10 10:19:17;;;;;;;36.00;21.45;;;2.40;99.90;;;;;;5037465;28;20073;-76
2022/01/10 10:21:47;;;;;;;47.28;25.85;;;2.30;99.90;;;;;;5037115;28;20049;-79
2022/01/10 10:24:15;;;;;;;37.17;22.38;;;2.50;99.90;;;;;;5043015;28;20087;-77
2022/01/10 10:26:43;;;;;;;37.53;20.38;;;2.50;99.90;;;;;;5039987;28;20111;-78
2022/01/10 10:29:13;;;;;;;40.53;23.35;;;2.50;99.90;;;;;;5041010;28;20077;-78
2022/01/10 10:31:45;;;;;;;34.35;21.00;;;2.60;99.90;;;;;;5029649;28;20046;-75
2022/01/10 10:34:19;;;;;;;34.30;20.75;;;2.70;99.90;;;;;;5040361;28;20497;-77
2022/01/10 10:37:02;;;;;;;42.30;22.48;;;2.70;99.90;;;;;;5038957;28;20068;-78
2022/01/10 10:39:31;;;;;;;37.97;22.88;;;2.90;99.90;;;;;;5041653;28;20048;-79
2022/01/10 10:42:02;;;;;;;37.92;21.67;;;2.90;99.90;;;;;;5047290;28;20047;-78
2022/01/10 10:44:30;;;;;;;37.20;21.45;;;3.00;99.90;;;;;;5048640;28;20072;-79
2022/01/10 10:46:58;;;;;;;38.95;24.85;;;3.10;99.90;;;;;;5050316;28;20069;-77
2022/01/10 10:49:31;;;;;;;44.25;24.30;;;3.20;99.90;;;;;;5056196;28;20064;-78
2022/01/10 10:52:02;;;;;;;44.28;24.90;;;3.30;99.90;;;;;;5054790;28;20448;-78
2022/01/10 10:54:32;;;;;;;35.95;23.02;;;3.50;99.90;;;;;;5056728;28;20041;-79
2022/01/10 10:57:00;;;;;;;39.83;24.77;;;3.70;99.90;;;;;;5054020;28;20037;-78
2022/01/10 10:59:31;;;;;;;37.95;23.40;;;3.80;99.90;;;;;;5042528;28;20064;-79
2022/01/10 11:01:59;;;;;;;41.95;25.27;;;3.70;99.90;;;;;;5038916;28;20057;-78
2022/01/10 11:04:27;;;;;;;46.25;26.08;;;3.60;99.90;;;;;;5040532;28;20053;-81
2022/01/10 11:06:55;;;;;;;41.15;23.13;;;3.50;99.90;;;;;;5048030;28;20052;-79
2022/01/10 11:09:24;;;;;;;39.22;22.58;;;3.60;99.90;;;;;;5048684;28;20057;-80
2022/01/10 11:11:52;;;;;;;37.60;22.75;;;3.80;99.90;;;;;;5047339;28;20045;-78
2022/01/10 11:14:24;;;;;;;34.88;21.65;;;4.00;99.90;;;;;;5046958;28;20049;-80
2022/01/10 11:16:54;;;;;;;32.90;19.30;;;4.10;99.90;;;;;;5036160;28;20049;-78
2022/01/10 11:19:24;;;;;;;36.55;21.42;;;4.20;99.90;;;;;;5039489;28;20050;-78
2022/01/10 11:21:55;;;;;;;37.47;22.35;;;4.00;99.90;;;;;;5040488;28;20049;-79
2022/01/10 11:24:50;;;;;;;39.60;23.33;;;4.00;99.90;;;;;;5038109;28;20116;-79
2022/01/10 11:27:34;;;;;;;61.85;33.22;;;4.10;99.90;;;;;;5035522;28;20050;-78
2022/01/10 11:30:22;;;;;;;59.00;33.60;;;4.20;99.90;;;;;;5038339;28;20041;-79
2022/01/10 11:32:56;;;;;;;57.10;32.17;;;4.40;99.90;;;;;;5038564;28;20049;-79
2022/01/10 11:35:30;;;;;;;66.95;36.78;;;4.20;99.90;;;;;;5037893;28;20088;-79
2022/01/10 11:37:58;;;;;;;65.07;37.20;;;3.90;99.90;;;;;;5039043;28;20080;-78
2022/01/10 11:40:27;;;;;;;71.93;38.97;;;3.70;99.90;;;;;;5040575;28;20054;-79
2022/01/10 11:42:57;;;;;;;76.47;40.45;;;3.60;99.90;;;;;;5038634;28;20049;-79
2022/01/10 11:45:26;;;;;;;93.82;47.63;;;3.60;99.90;;;;;;5040406;28;20069;-78
2022/01/10 11:48:19;;;;;;;81.65;46.03;;;3.50;99.90;;;;;;5040464;28;20500;-78
2022/01/10 11:50:49;;;;;;;81.57;45.08;;;3.50;99.90;;;;;;5040673;28;20046;-79
2022/01/10 11:53:18;;;;;;;84.30;43.80;;;3.40;99.90;;;;;;5042797;28;20049;-79
2022/01/10 11:55:53;;;;;;;78.78;43.22;;;3.40;99.90;;;;;;5043200;28;20045;-79
2022/01/10 11:58:24;;;;;;;79.53;43.42;;;3.50;99.90;;;;;;5047605;28;20069;-79
2022/01/10 12:01:04;;;;;;;80.55;44.25;;;3.10;99.90;;;;;;5043567;28;20049;-79
2022/01/10 12:03:37;;;;;;;78.07;42.85;;;3.20;99.90;;;;;;5084179;23;20108;-83
2022/01/10 12:06:07;;;;;;;77.55;41.75;;;3.20;99.90;;;;;;5081538;28;20045;-84
2022/01/10 12:08:35;;;;;;;76.45;41.22;;;3.30;99.90;;;;;;5090944;28;20044;-84
2022/01/10 12:11:04;;;;;;;78.13;41.67;;;3.40;99.90;;;;;;5088339;28;20037;-81
2022/01/10 12:13:31;;;;;;;72.00;39.80;;;3.30;99.90;;;;;;5081026;28;20056;-83
2022/01/10 12:16:00;;;;;;;74.20;39.55;;;3.20;99.90;;;;;;5055660;28;20041;-82
2022/01/10 12:18:30;;;;;;;69.70;38.72;;;3.20;99.90;;;;;;5065242;28;20069;-80
2022/01/10 12:20:57;;;;;;;72.68;40.05;;;3.10;99.90;;;;;;5061109;28;20037;-83
2022/01/10 12:23:25;;;;;;;69.07;38.22;;;2.90;99.90;;;;;;5057985;28;20037;-81
2022/01/10 12:25:52;;;;;;;74.60;37.67;;;2.80;99.90;;;;;;5057356;28;20041;-81
2022/01/10 12:28:21;;;;;;;75.18;39.70;;;2.80;99.90;;;;;;5055987;28;20048;-83
2022/01/10 12:30:49;;;;;;;69.93;38.58;;;2.90;99.90;;;;;;5055570;28;20541;-82
2022/01/10 12:33:16;;;;;;;69.65;35.97;;;3.00;99.90;;;;;;5055385;28;20049;-83
2022/01/10 12:35:44;;;;;;;70.95;38.60;;;3.10;99.90;;;;;;5056773;28;20040;-82
2022/01/10 12:38:12;;;;;;;67.35;37.60;;;3.20;99.90;;;;;;5054018;28;20069;-82
2022/01/10 12:40:40;;;;;;;81.78;45.10;;;3.20;99.90;;;;;;5055636;28;20094;-82
2022/01/10 12:43:07;;;;;;;80.47;42.40;;;3.00;99.90;;;;;;5054625;28;20036;-82
2022/01/10 12:45:36;;;;;;;83.03;43.30;;;3.00;99.90;;;;;;5054912;28;20109;-83
2022/01/10 12:48:05;;;;;;;76.57;42.47;;;3.00;99.90;;;;;;5054953;28;20056;-83
2022/01/10 12:50:35;;;;;;;78.63;42.38;;;3.10;99.90;;;;;;5055825;28;20127;-83
2022/01/10 12:53:02;;;;;;;84.00;43.88;;;3.20;99.90;;;;;;5054958;28;20045;-83
2022/01/10 12:55:30;;;;;;;82.68;42.55;;;3.10;99.90;;;;;;5058635;28;20514;-82